Terminal Aerodrome Forecast
Issued by NWS Springfield, MO

Home | Current Version | Previous Version | Text Only | Print | Product List | Glossary On
Versions: 1 2 3 4 5 6 7 8 9 10 11 12
000
FTUS43 KSGF 222300
TAFSGF
TAF
KSGF 222338Z 2300/2324 VRB04KT P6SM SKC
     FM230400 22004KT P6SM VCTS SCT050CB OVC250
     FM231200 01006KT P6SM SCT050 OVC150
     FM231800 03010KT P6SM BKN250=

USA.gov is the U.S. government's official web portal to all federal, state and local government web resources and services.